sensor_id;sensor_type;location;lat;lon;timestamp;temperature;humidity
4896;DHT22;2463;49.948;8.472;2022-10-17T00:00:52;14.00;99.90
4896;DHT22;2463;49.948;8.472;2022-10-17T00:03:19;14.10;99.90
4896;DHT22;2463;49.948;8.472;2022-10-17T00:05:46;14.10;99.90
4896;DHT22;2463;49.948;8.472;2022-10-17T00:08:15;14.00;99.90
4896;DHT22;2463;49.948;8.472;2022-10-17T00:10:42;14.00;99.90
4896;DHT22;2463;49.948;8.472;2022-10-17T00:13:10;14.00;99.90
4896;DHT22;2463;49.948;8.472;2022-10-17T00:15:37;13.90;99.90
4896;DHT22;2463;49.948;8.472;2022-10-17T00:18:04;13.80;99.90
4896;DHT22;2463;49.948;8.472;2022-10-17T00:20:36;13.60;99.90
4896;DHT22;2463;49.948;8.472;2022-10-17T00:24:00;13.60;99.90
4896;DHT22;2463;49.948;8.472;2022-10-17T00:26:58;13.50;99.90
4896;DHT22;2463;49.948;8.472;2022-10-17T00:29:25;13.40;99.90
4896;DHT22;2463;49.948;8.472;2022-10-17T00:31:55;13.40;99.90
4896;DHT22;2463;49.948;8.472;2022-10-17T00:34:23;13.50;99.90
4896;DHT22;2463;49.948;8.472;2022-10-17T00:36:50;13.50;99.90
4896;DHT22;2463;49.948;8.472;2022-10-17T00:39:17;13.50;99.90
4896;DHT22;2463;49.948;8.472;2022-10-17T00:41:43;13.60;99.90
4896;DHT22;2463;49.948;8.472;2022-10-17T00:47:01;13.50;99.90
4896;DHT22;2463;49.948;8.472;2022-10-17T00:49:33;13.60;99.90
4896;DHT22;2463;49.948;8.472;2022-10-17T00:52:10;13.60;99.90
4896;DHT22;2463;49.948;8.472;2022-10-17T00:54:52;13.60;99.90
4896;DHT22;2463;49.948;8.472;2022-10-17T00:57:19;13.50;99.90
4896;DHT22;2463;49.948;8.472;2022-10-17T00:59:50;13.50;99.90
4896;DHT22;2463;49.948;8.472;2022-10-17T01:02:20;13.50;99.90
4896;DHT22;2463;49.948;8.472;2022-10-17T01:04:50;13.50;99.90
4896;DHT22;2463;49.948;8.472;2022-10-17T01:07:17;13.50;99.90
4896;DHT22;2463;49.948;8.472;2022-10-17T01:09:45;13.40;99.90
4896;DHT22;2463;49.948;8.472;2022-10-17T01:12:31;13.40;99.90
4896;DHT22;2463;49.948;8.472;2022-10-17T01:30:23;13.30;99.90
4896;DHT22;2463;49.948;8.472;2022-10-17T01:32:58;13.30;99.90
4896;DHT22;2463;49.948;8.472;2022-10-17T01:38:31;13.30;99.90
4896;DHT22;2463;49.948;8.472;2022-10-17T01:41:08;13.30;99.90
4896;DHT22;2463;49.948;8.472;2022-10-17T01:43:42;13.20;99.90
4896;DHT22;2463;49.948;8.472;2022-10-17T01:46:55;13.20;99.90
4896;DHT22;2463;49.948;8.472;2022-10-17T01:49:02;13.20;99.90
4896;DHT22;2463;49.948;8.472;2022-10-17T01:51:42;13.10;99.90
4896;DHT22;2463;49.948;8.472;2022-10-17T01:54:20;13.10;99.90
4896;DHT22;2463;49.948;8.472;2022-10-17T01:56:52;13.10;99.90
4896;DHT22;2463;49.948;8.472;2022-10-17T01:59:24;13.10;99.90
4896;DHT22;2463;49.948;8.472;2022-10-17T02:01:54;13.10;99.90
4896;DHT22;2463;49.948;8.472;2022-10-17T02:04:21;13.10;99.90
4896;DHT22;2463;49.948;8.472;2022-10-17T02:06:48;13.10;99.90
4896;DHT22;2463;49.948;8.472;2022-10-17T02:09:25;13.10;99.90
4896;DHT22;2463;49.948;8.472;2022-10-17T02:12:10;13.10;99.90
4896;DHT22;2463;49.948;8.472;2022-10-17T02:15:07;13.10;99.90
4896;DHT22;2463;49.948;8.472;2022-10-17T02:18:00;13.00;99.90
4896;DHT22;2463;49.948;8.472;2022-10-17T02:20:48;13.00;99.90
4896;DHT22;2463;49.948;8.472;2022-10-17T02:28:43;12.80;99.90
4896;DHT22;2463;49.948;8.472;2022-10-17T02:31:19;12.80;99.90
4896;DHT22;2463;49.948;8.472;2022-10-17T02:33:57;12.70;99.90
4896;DHT22;2463;49.948;8.472;2022-10-17T02:36:39;12.70;99.90
4896;DHT22;2463;49.948;8.472;2022-10-17T02:39:07;12.80;99.90
4896;DHT22;2463;49.948;8.472;2022-10-17T02:41:35;12.70;99.90
4896;DHT22;2463;49.948;8.472;2022-10-17T02:44:04;12.70;99.90
4896;DHT22;2463;49.948;8.472;2022-10-17T02:46:32;12.70;99.90
4896;DHT22;2463;49.948;8.472;2022-10-17T02:49:15;12.70;99.90
4896;DHT22;2463;49.948;8.472;2022-10-17T02:54:42;12.80;99.90
4896;DHT22;2463;49.948;8.472;2022-10-17T02:59:40;12.70;99.90
4896;DHT22;2463;49.948;8.472;2022-10-17T03:02:08;12.70;99.90
4896;DHT22;2463;49.948;8.472;2022-10-17T03:04:35;12.70;99.90
4896;DHT22;2463;49.948;8.472;2022-10-17T03:07:02;12.70;99.90
4896;DHT22;2463;49.948;8.472;2022-10-17T03:09:29;12.70;99.90
4896;DHT22;2463;49.948;8.472;2022-10-17T03:11:56;12.80;99.90
4896;DHT22;2463;49.948;8.472;2022-10-17T03:14:22;12.80;99.90
4896;DHT22;2463;49.948;8.472;2022-10-17T03:16:49;12.80;99.90
4896;DHT22;2463;49.948;8.472;2022-10-17T03:19:16;12.80;99.90
4896;DHT22;2463;49.948;8.472;2022-10-17T03:21:42;12.80;99.90
4896;DHT22;2463;49.948;8.472;2022-10-17T03:24:09;12.80;99.90
4896;DHT22;2463;49.948;8.472;2022-10-17T03:26:35;12.80;99.90
4896;DHT22;2463;49.948;8.472;2022-10-17T03:29:02;12.80;99.90
4896;DHT22;2463;49.948;8.472;2022-10-17T03:31:29;12.80;99.90
4896;DHT22;2463;49.948;8.472;2022-10-17T03:33:56;12.70;99.90
4896;DHT22;2463;49.948;8.472;2022-10-17T03:36:22;12.70;99.90
4896;DHT22;2463;49.948;8.472;2022-10-17T03:38:52;12.70;99.90
4896;DHT22;2463;49.948;8.472;2022-10-17T03:41:20;12.60;99.90
4896;DHT22;2463;49.948;8.472;2022-10-17T03:43:47;12.60;99.90
4896;DHT22;2463;49.948;8.472;2022-10-17T03:46:13;12.60;99.90
4896;DHT22;2463;49.948;8.472;2022-10-17T03:48:40;12.60;99.90
4896;DHT22;2463;49.948;8.472;2022-10-17T03:51:08;12.50;99.90
4896;DHT22;2463;49.948;8.472;2022-10-17T03:53:35;12.40;99.90
4896;DHT22;2463;49.948;8.472;2022-10-17T03:56:13;12.40;99.90
4896;DHT22;2463;49.948;8.472;2022-10-17T03:58:41;12.40;99.90
4896;DHT22;2463;49.948;8.472;2022-10-17T04:01:10;12.40;99.90
4896;DHT22;2463;49.948;8.472;2022-10-17T04:03:37;12.40;99.90
4896;DHT22;2463;49.948;8.472;2022-10-17T04:06:05;12.40;99.90
4896;DHT22;2463;49.948;8.472;2022-10-17T04:08:32;12.40;99.90
4896;DHT22;2463;49.948;8.472;2022-10-17T04:11:01;12.40;99.90
4896;DHT22;2463;49.948;8.472;2022-10-17T04:13:28;12.30;99.90
4896;DHT22;2463;49.948;8.472;2022-10-17T04:15:57;12.30;99.90
4896;DHT22;2463;49.948;8.472;2022-10-17T04:18:24;12.30;99.90
4896;DHT22;2463;49.948;8.472;2022-10-17T04:20:51;12.30;99.90
4896;DHT22;2463;49.948;8.472;2022-10-17T04:23:18;12.30;99.90
4896;DHT22;2463;49.948;8.472;2022-10-17T04:25:45;12.30;99.90
4896;DHT22;2463;49.948;8.472;2022-10-17T04:28:12;12.30;99.90
4896;DHT22;2463;49.948;8.472;2022-10-17T04:30:38;12.30;99.90
4896;DHT22;2463;49.948;8.472;2022-10-17T04:33:10;12.40;99.90
4896;DHT22;2463;49.948;8.472;2022-10-17T04:35:37;12.40;99.90
4896;DHT22;2463;49.948;8.472;2022-10-17T04:38:03;12.50;99.90
4896;DHT22;2463;49.948;8.472;2022-10-17T04:40:30;12.50;99.90
4896;DHT22;2463;49.948;8.472;2022-10-17T04:42:57;12.50;99.90
4896;DHT22;2463;49.948;8.472;2022-10-17T04:45:23;12.60;99.90
4896;DHT22;2463;49.948;8.472;2022-10-17T04:47:50;12.60;99.90
4896;DHT22;2463;49.948;8.472;2022-10-17T04:50:17;12.60;99.90
4896;DHT22;2463;49.948;8.472;2022-10-17T04:52:44;12.60;99.90
4896;DHT22;2463;49.948;8.472;2022-10-17T04:55:10;12.70;99.90
4896;DHT22;2463;49.948;8.472;2022-10-17T04:57:37;12.60;99.90
4896;DHT22;2463;49.948;8.472;2022-10-17T05:00:04;12.60;99.90
4896;DHT22;2463;49.948;8.472;2022-10-17T05:02:31;12.60;99.90
4896;DHT22;2463;49.948;8.472;2022-10-17T05:04:58;12.60;99.90
4896;DHT22;2463;49.948;8.472;2022-10-17T05:07:24;12.60;99.90
4896;DHT22;2463;49.948;8.472;2022-10-17T05:09:51;12.60;99.90
4896;DHT22;2463;49.948;8.472;2022-10-17T05:12:17;12.60;99.90
4896;DHT22;2463;49.948;8.472;2022-10-17T05:14:44;12.60;99.90
4896;DHT22;2463;49.948;8.472;2022-10-17T05:17:11;12.60;99.90
4896;DHT22;2463;49.948;8.472;2022-10-17T05:19:37;12.70;99.90
4896;DHT22;2463;49.948;8.472;2022-10-17T05:22:04;12.70;99.90
4896;DHT22;2463;49.948;8.472;2022-10-17T05:24:31;12.60;99.90
4896;DHT22;2463;49.948;8.472;2022-10-17T05:26:57;12.60;99.90
4896;DHT22;2463;49.948;8.472;2022-10-17T05:29:24;12.70;99.90
4896;DHT22;2463;49.948;8.472;2022-10-17T05:31:51;12.70;99.90
4896;DHT22;2463;49.948;8.472;2022-10-17T05:34:17;12.70;99.90
4896;DHT22;2463;49.948;8.472;2022-10-17T05:36:44;12.70;99.90
4896;DHT22;2463;49.948;8.472;2022-10-17T05:39:12;12.70;99.90
4896;DHT22;2463;49.948;8.472;2022-10-17T05:41:40;12.70;99.90
4896;DHT22;2463;49.948;8.472;2022-10-17T05:44:06;12.70;99.90
4896;DHT22;2463;49.948;8.472;2022-10-17T05:46:33;12.70;99.90
4896;DHT22;2463;49.948;8.472;2022-10-17T05:49:00;12.70;99.90
4896;DHT22;2463;49.948;8.472;2022-10-17T05:51:26;12.70;99.90
4896;DHT22;2463;49.948;8.472;2022-10-17T05:53:53;12.70;99.90
4896;DHT22;2463;49.948;8.472;2022-10-17T05:56:20;12.60;99.90
4896;DHT22;2463;49.948;8.472;2022-10-17T05:58:46;12.60;99.90
4896;DHT22;2463;49.948;8.472;2022-10-17T06:01:18;12.60;99.90
4896;DHT22;2463;49.948;8.472;2022-10-17T06:03:45;12.50;99.90
4896;DHT22;2463;49.948;8.472;2022-10-17T06:06:13;12.60;99.90
4896;DHT22;2463;49.948;8.472;2022-10-17T06:08:40;12.60;99.90
4896;DHT22;2463;49.948;8.472;2022-10-17T06:11:07;12.60;99.90
4896;DHT22;2463;49.948;8.472;2022-10-17T06:13:36;12.60;99.90
4896;DHT22;2463;49.948;8.472;2022-10-17T06:16:03;12.60;99.90
4896;DHT22;2463;49.948;8.472;2022-10-17T06:18:31;12.60;99.90
4896;DHT22;2463;49.948;8.472;2022-10-17T06:21:05;12.70;99.90
4896;DHT22;2463;49.948;8.472;2022-10-17T06:23:32;12.70;99.90
4896;DHT22;2463;49.948;8.472;2022-10-17T06:26:00;12.80;99.90
4896;DHT22;2463;49.948;8.472;2022-10-17T06:28:28;12.80;99.90
4896;DHT22;2463;49.948;8.472;2022-10-17T06:30:54;12.90;99.90
4896;DHT22;2463;49.948;8.472;2022-10-17T06:33:21;12.80;99.90
4896;DHT22;2463;49.948;8.472;2022-10-17T06:35:53;13.00;99.90
4896;DHT22;2463;49.948;8.472;2022-10-17T06:38:20;13.00;99.90
4896;DHT22;2463;49.948;8.472;2022-10-17T06:40:47;13.10;99.90
4896;DHT22;2463;49.948;8.472;2022-10-17T06:43:14;13.00;99.90
4896;DHT22;2463;49.948;8.472;2022-10-17T06:45:41;13.10;99.90
4896;DHT22;2463;49.948;8.472;2022-10-17T06:48:08;13.10;99.90
4896;DHT22;2463;49.948;8.472;2022-10-17T06:50:34;13.20;99.90
4896;DHT22;2463;49.948;8.472;2022-10-17T06:53:01;13.20;99.90
4896;DHT22;2463;49.948;8.472;2022-10-17T06:55:29;13.20;99.90
4896;DHT22;2463;49.948;8.472;2022-10-17T06:57:56;13.30;99.90
4896;DHT22;2463;49.948;8.472;2022-10-17T07:00:23;13.40;99.90
4896;DHT22;2463;49.948;8.472;2022-10-17T07:02:49;13.40;99.90
4896;DHT22;2463;49.948;8.472;2022-10-17T07:05:16;13.50;99.90
4896;DHT22;2463;49.948;8.472;2022-10-17T07:07:44;13.60;99.90
4896;DHT22;2463;49.948;8.472;2022-10-17T07:10:17;13.70;99.90
4896;DHT22;2463;49.948;8.472;2022-10-17T07:12:43;13.80;99.90
4896;DHT22;2463;49.948;8.472;2022-10-17T07:15:11;13.80;99.90
4896;DHT22;2463;49.948;8.472;2022-10-17T07:17:38;13.90;99.90
4896;DHT22;2463;49.948;8.472;2022-10-17T07:20:05;14.00;99.90
4896;DHT22;2463;49.948;8.472;2022-10-17T07:22:32;14.10;99.90
4896;DHT22;2463;49.948;8.472;2022-10-17T07:24:58;14.20;99.90
4896;DHT22;2463;49.948;8.472;2022-10-17T07:27:25;14.30;99.90
4896;DHT22;2463;49.948;8.472;2022-10-17T07:29:52;14.40;99.90
4896;DHT22;2463;49.948;8.472;2022-10-17T07:32:19;14.50;99.90
4896;DHT22;2463;49.948;8.472;2022-10-17T07:34:45;14.60;99.90
4896;DHT22;2463;49.948;8.472;2022-10-17T07:37:12;14.80;99.90
4896;DHT22;2463;49.948;8.472;2022-10-17T07:39:39;14.90;99.90
4896;DHT22;2463;49.948;8.472;2022-10-17T07:42:05;15.00;99.90
4896;DHT22;2463;49.948;8.472;2022-10-17T07:44:35;15.20;99.90
4896;DHT22;2463;49.948;8.472;2022-10-17T07:47:02;15.40;99.90
4896;DHT22;2463;49.948;8.472;2022-10-17T07:49:28;15.50;99.90
4896;DHT22;2463;49.948;8.472;2022-10-17T07:51:56;15.70;99.90
4896;DHT22;2463;49.948;8.472;2022-10-17T07:54:23;15.90;99.90
4896;DHT22;2463;49.948;8.472;2022-10-17T07:56:49;16.20;99.90
4896;DHT22;2463;49.948;8.472;2022-10-17T07:59:17;16.50;99.90
4896;DHT22;2463;49.948;8.472;2022-10-17T08:01:44;16.70;99.90
4896;DHT22;2463;49.948;8.472;2022-10-17T08:04:10;16.90;99.90
4896;DHT22;2463;49.948;8.472;2022-10-17T08:06:37;17.20;99.90
4896;DHT22;2463;49.948;8.472;2022-10-17T08:09:04;17.50;99.90
4896;DHT22;2463;49.948;8.472;2022-10-17T08:11:32;17.70;99.90
4896;DHT22;2463;49.948;8.472;2022-10-17T08:13:58;18.00;99.90
4896;DHT22;2463;49.948;8.472;2022-10-17T08:16:25;18.20;99.90
4896;DHT22;2463;49.948;8.472;2022-10-17T08:18:52;18.40;99.90
4896;DHT22;2463;49.948;8.472;2022-10-17T08:21:18;18.50;99.90
4896;DHT22;2463;49.948;8.472;2022-10-17T08:23:45;18.70;99.90
4896;DHT22;2463;49.948;8.472;2022-10-17T08:26:12;19.00;99.90
4896;DHT22;2463;49.948;8.472;2022-10-17T08:28:42;19.70;99.90
4896;DHT22;2463;49.948;8.472;2022-10-17T08:31:11;20.60;99.90
4896;DHT22;2463;49.948;8.472;2022-10-17T08:33:39;21.10;99.90
4896;DHT22;2463;49.948;8.472;2022-10-17T08:36:07;21.50;99.90
4896;DHT22;2463;49.948;8.472;2022-10-17T08:38:35;22.20;99.90
4896;DHT22;2463;49.948;8.472;2022-10-17T08:41:06;22.40;99.90
4896;DHT22;2463;49.948;8.472;2022-10-17T08:46:18;23.20;99.90
4896;DHT22;2463;49.948;8.472;2022-10-17T08:48:47;23.70;99.90
4896;DHT22;2463;49.948;8.472;2022-10-17T08:51:24;24.00;99.90
4896;DHT22;2463;49.948;8.472;2022-10-17T08:54:00;24.50;99.90
4896;DHT22;2463;49.948;8.472;2022-10-17T08:56:39;25.30;99.90
4896;DHT22;2463;49.948;8.472;2022-10-17T08:59:28;26.10;99.90
4896;DHT22;2463;49.948;8.472;2022-10-17T09:10:44;28.50;99.90
4896;DHT22;2463;49.948;8.472;2022-10-17T09:13:27;28.30;99.90
4896;DHT22;2463;49.948;8.472;2022-10-17T09:15:59;28.00;99.90
4896;DHT22;2463;49.948;8.472;2022-10-17T09:18:31;27.50;99.90
4896;DHT22;2463;49.948;8.472;2022-10-17T09:21:18;27.50;99.90
4896;DHT22;2463;49.948;8.472;2022-10-17T09:23:56;28.00;99.90
4896;DHT22;2463;49.948;8.472;2022-10-17T09:26:34;29.20;99.90
4896;DHT22;2463;49.948;8.472;2022-10-17T09:29:02;29.60;99.90
4896;DHT22;2463;49.948;8.472;2022-10-17T09:31:44;29.30;99.90
4896;DHT22;2463;49.948;8.472;2022-10-17T09:34:11;29.50;99.90
4896;DHT22;2463;49.948;8.472;2022-10-17T09:36:39;29.60;99.90
4896;DHT22;2463;49.948;8.472;2022-10-17T09:39:19;30.50;99.90
4896;DHT22;2463;49.948;8.472;2022-10-17T09:41:59;30.70;99.90
4896;DHT22;2463;49.948;8.472;2022-10-17T09:49:34;31.20;99.40
4896;DHT22;2463;49.948;8.472;2022-10-17T09:52:10;30.90;99.10
4896;DHT22;2463;49.948;8.472;2022-10-17T09:54:45;31.20;99.90
4896;DHT22;2463;49.948;8.472;2022-10-17T09:57:13;31.30;98.60
4896;DHT22;2463;49.948;8.472;2022-10-17T10:00:06;31.80;98.20
4896;DHT22;2463;49.948;8.472;2022-10-17T10:02:31;31.90;98.70
4896;DHT22;2463;49.948;8.472;2022-10-17T10:05:14;32.80;97.90
4896;DHT22;2463;49.948;8.472;2022-10-17T10:08:02;33.50;96.90
4896;DHT22;2463;49.948;8.472;2022-10-17T10:10:30;33.30;95.60
4896;DHT22;2463;49.948;8.472;2022-10-17T10:13:03;33.80;95.40
4896;DHT22;2463;49.948;8.472;2022-10-17T10:15:38;34.30;94.40
4896;DHT22;2463;49.948;8.472;2022-10-17T10:21:12;34.70;93.70
4896;DHT22;2463;49.948;8.472;2022-10-17T10:23:43;35.10;92.20
4896;DHT22;2463;49.948;8.472;2022-10-17T10:29:00;35.20;92.90
4896;DHT22;2463;49.948;8.472;2022-10-17T10:31:36;35.30;91.60
4896;DHT22;2463;49.948;8.472;2022-10-17T10:37:21;34.30;90.40
4896;DHT22;2463;49.948;8.472;2022-10-17T10:40:01;34.70;90.80
4896;DHT22;2463;49.948;8.472;2022-10-17T10:42:37;35.10;91.20
4896;DHT22;2463;49.948;8.472;2022-10-17T10:45:14;35.60;90.30
4896;DHT22;2463;49.948;8.472;2022-10-17T10:53:41;36.90;88.20
4896;DHT22;2463;49.948;8.472;2022-10-17T10:56:16;37.30;84.90
4896;DHT22;2463;49.948;8.472;2022-10-17T11:05:00;36.50;82.30
4896;DHT22;2463;49.948;8.472;2022-10-17T11:07:12;36.90;84.00
4896;DHT22;2463;49.948;8.472;2022-10-17T11:09:53;37.60;82.80
4896;DHT22;2463;49.948;8.472;2022-10-17T11:12:33;38.30;80.60
4896;DHT22;2463;49.948;8.472;2022-10-17T11:15:17;38.50;79.20
4896;DHT22;2463;49.948;8.472;2022-10-17T11:18:00;38.60;79.00
4896;DHT22;2463;49.948;8.472;2022-10-17T11:20:59;38.60;77.90
4896;DHT22;2463;49.948;8.472;2022-10-17T11:27:02;37.10;77.80
4896;DHT22;2463;49.948;8.472;2022-10-17T11:29:32;37.30;77.70
4896;DHT22;2463;49.948;8.472;2022-10-17T11:34:36;37.10;77.30
4896;DHT22;2463;49.948;8.472;2022-10-17T11:37:11;36.70;76.90
4896;DHT22;2463;49.948;8.472;2022-10-17T11:42:35;36.20;78.00
4896;DHT22;2463;49.948;8.472;2022-10-17T11:45:10;37.00;77.80
4896;DHT22;2463;49.948;8.472;2022-10-17T11:53:26;36.90;77.40
4896;DHT22;2463;49.948;8.472;2022-10-17T11:55:57;37.30;78.90
4896;DHT22;2463;49.948;8.472;2022-10-17T11:58:51;37.40;77.50
4896;DHT22;2463;49.948;8.472;2022-10-17T12:01:26;38.10;77.00
4896;DHT22;2463;49.948;8.472;2022-10-17T12:12:08;38.40;75.80
4896;DHT22;2463;49.948;8.472;2022-10-17T12:14:45;38.00;77.60
4896;DHT22;2463;49.948;8.472;2022-10-17T12:17:23;38.10;75.30
4896;DHT22;2463;49.948;8.472;2022-10-17T12:19:50;37.70;75.10
4896;DHT22;2463;49.948;8.472;2022-10-17T12:22:24;37.10;76.40
4896;DHT22;2463;49.948;8.472;2022-10-17T12:24:55;36.70;76.10
4896;DHT22;2463;49.948;8.472;2022-10-17T12:27:44;37.40;79.50
4896;DHT22;2463;49.948;8.472;2022-10-17T12:30:21;37.70;74.60
4896;DHT22;2463;49.948;8.472;2022-10-17T12:35:35;35.80;77.20
4896;DHT22;2463;49.948;8.472;2022-10-17T12:45:51;35.00;82.90
4896;DHT22;2463;49.948;8.472;2022-10-17T12:53:59;33.80;84.50
4896;DHT22;2463;49.948;8.472;2022-10-17T12:56:43;34.40;86.00
4896;DHT22;2463;49.948;8.472;2022-10-17T13:01:45;34.10;85.20
4896;DHT22;2463;49.948;8.472;2022-10-17T13:04:14;34.00;84.80
4896;DHT22;2463;49.948;8.472;2022-10-17T13:06:51;33.80;85.90
4896;DHT22;2463;49.948;8.472;2022-10-17T13:09:34;33.80;87.10
4896;DHT22;2463;49.948;8.472;2022-10-17T13:12:05;33.90;87.10
4896;DHT22;2463;49.948;8.472;2022-10-17T13:14:39;34.00;85.50
4896;DHT22;2463;49.948;8.472;2022-10-17T13:17:13;34.20;86.40
4896;DHT22;2463;49.948;8.472;2022-10-17T13:19:46;34.60;85.30
4896;DHT22;2463;49.948;8.472;2022-10-17T13:22:19;34.40;86.40
4896;DHT22;2463;49.948;8.472;2022-10-17T13:24:48;34.00;84.60
4896;DHT22;2463;49.948;8.472;2022-10-17T13:27:31;33.40;86.40
4896;DHT22;2463;49.948;8.472;2022-10-17T13:30:00;32.80;86.50
4896;DHT22;2463;49.948;8.472;2022-10-17T13:32:36;32.10;88.80
4896;DHT22;2463;49.948;8.472;2022-10-17T13:35:09;31.70;90.20
4896;DHT22;2463;49.948;8.472;2022-10-17T13:37:39;31.40;89.70
4896;DHT22;2463;49.948;8.472;2022-10-17T13:40:14;31.30;90.30
4896;DHT22;2463;49.948;8.472;2022-10-17T13:43:02;31.20;89.70
4896;DHT22;2463;49.948;8.472;2022-10-17T13:45:33;31.30;90.30
4896;DHT22;2463;49.948;8.472;2022-10-17T13:48:05;31.10;90.80
4896;DHT22;2463;49.948;8.472;2022-10-17T13:50:35;31.00;90.70
4896;DHT22;2463;49.948;8.472;2022-10-17T13:53:27;30.90;91.20
4896;DHT22;2463;49.948;8.472;2022-10-17T13:56:05;30.50;91.00
4896;DHT22;2463;49.948;8.472;2022-10-17T13:58:58;30.10;91.40
4896;DHT22;2463;49.948;8.472;2022-10-17T14:01:27;29.60;93.10
4896;DHT22;2463;49.948;8.472;2022-10-17T14:03:54;29.40;93.20
4896;DHT22;2463;49.948;8.472;2022-10-17T14:06:40;29.10;93.80
4896;DHT22;2463;49.948;8.472;2022-10-17T14:09:39;29.00;94.20
4896;DHT22;2463;49.948;8.472;2022-10-17T14:12:10;28.80;94.60
4896;DHT22;2463;49.948;8.472;2022-10-17T14:14:47;28.60;94.80
4896;DHT22;2463;49.948;8.472;2022-10-17T14:17:34;28.40;95.90
4896;DHT22;2463;49.948;8.472;2022-10-17T14:20:02;28.30;96.50
4896;DHT22;2463;49.948;8.472;2022-10-17T14:22:50;28.20;97.60
4896;DHT22;2463;49.948;8.472;2022-10-17T14:25:38;28.10;98.10
4896;DHT22;2463;49.948;8.472;2022-10-17T14:30:47;28.10;99.90
4896;DHT22;2463;49.948;8.472;2022-10-17T14:33:26;28.10;99.90
4896;DHT22;2463;49.948;8.472;2022-10-17T14:35:56;28.10;98.80
4896;DHT22;2463;49.948;8.472;2022-10-17T14:38:23;28.00;99.00
4896;DHT22;2463;49.948;8.472;2022-10-17T14:41:02;27.70;99.30
4896;DHT22;2463;49.948;8.472;2022-10-17T14:44:02;27.40;99.60
4896;DHT22;2463;49.948;8.472;2022-10-17T14:46:30;27.30;99.90
4896;DHT22;2463;49.948;8.472;2022-10-17T14:49:07;27.30;99.90
4896;DHT22;2463;49.948;8.472;2022-10-17T14:51:39;27.50;99.90
4896;DHT22;2463;49.948;8.472;2022-10-17T14:54:26;27.80;99.90
4896;DHT22;2463;49.948;8.472;2022-10-17T14:56:58;27.90;99.90
4896;DHT22;2463;49.948;8.472;2022-10-17T14:59:24;27.70;99.90
4896;DHT22;2463;49.948;8.472;2022-10-17T15:02:12;27.50;99.90
4896;DHT22;2463;49.948;8.472;2022-10-17T15:04:39;27.40;99.90
4896;DHT22;2463;49.948;8.472;2022-10-17T15:07:05;27.30;99.90
4896;DHT22;2463;49.948;8.472;2022-10-17T15:09:32;27.10;99.90
4896;DHT22;2463;49.948;8.472;2022-10-17T15:12:00;27.00;99.90
4896;DHT22;2463;49.948;8.472;2022-10-17T15:14:28;26.90;99.90
4896;DHT22;2463;49.948;8.472;2022-10-17T15:16:55;26.70;99.90
4896;DHT22;2463;49.948;8.472;2022-10-17T15:19:22;26.60;99.90
4896;DHT22;2463;49.948;8.472;2022-10-17T15:21:48;26.60;99.90
4896;DHT22;2463;49.948;8.472;2022-10-17T15:24:15;26.80;99.90
4896;DHT22;2463;49.948;8.472;2022-10-17T15:26:42;26.90;99.90
4896;DHT22;2463;49.948;8.472;2022-10-17T15:29:13;26.90;99.90
4896;DHT22;2463;49.948;8.472;2022-10-17T15:31:40;27.00;99.90
4896;DHT22;2463;49.948;8.472;2022-10-17T15:34:07;26.80;99.90
4896;DHT22;2463;49.948;8.472;2022-10-17T15:36:41;26.50;99.90
4896;DHT22;2463;49.948;8.472;2022-10-17T15:39:13;26.30;99.90
4896;DHT22;2463;49.948;8.472;2022-10-17T15:41:40;26.10;99.90
4896;DHT22;2463;49.948;8.472;2022-10-17T15:44:06;26.00;99.90
4896;DHT22;2463;49.948;8.472;2022-10-17T15:46:34;26.00;99.90
4896;DHT22;2463;49.948;8.472;2022-10-17T15:49:03;26.00;99.90
4896;DHT22;2463;49.948;8.472;2022-10-17T15:51:31;25.80;99.90
4896;DHT22;2463;49.948;8.472;2022-10-17T15:53:57;25.60;99.90
4896;DHT22;2463;49.948;8.472;2022-10-17T15:56:29;25.30;99.90
4896;DHT22;2463;49.948;8.472;2022-10-17T15:58:57;25.10;99.90
4896;DHT22;2463;49.948;8.472;2022-10-17T16:01:27;24.90;99.90
4896;DHT22;2463;49.948;8.472;2022-10-17T16:03:54;24.70;99.90
4896;DHT22;2463;49.948;8.472;2022-10-17T16:06:22;24.50;99.90
4896;DHT22;2463;49.948;8.472;2022-10-17T16:08:49;24.40;99.90
4896;DHT22;2463;49.948;8.472;2022-10-17T16:13:52;24.10;99.90
4896;DHT22;2463;49.948;8.472;2022-10-17T16:16:20;24.00;99.90
4896;DHT22;2463;49.948;8.472;2022-10-17T16:18:48;23.90;99.90
4896;DHT22;2463;49.948;8.472;2022-10-17T16:21:16;23.70;99.90
4896;DHT22;2463;49.948;8.472;2022-10-17T16:23:43;23.50;99.90
4896;DHT22;2463;49.948;8.472;2022-10-17T16:26:10;23.40;99.90
4896;DHT22;2463;49.948;8.472;2022-10-17T16:28:44;23.20;99.90
4896;DHT22;2463;49.948;8.472;2022-10-17T16:31:20;23.00;99.90
4896;DHT22;2463;49.948;8.472;2022-10-17T16:33:50;22.80;99.90
4896;DHT22;2463;49.948;8.472;2022-10-17T16:36:18;22.60;99.90
4896;DHT22;2463;49.948;8.472;2022-10-17T16:38:45;22.40;99.90
4896;DHT22;2463;49.948;8.472;2022-10-17T16:41:33;22.30;99.90
4896;DHT22;2463;49.948;8.472;2022-10-17T16:44:03;22.20;99.90
4896;DHT22;2463;49.948;8.472;2022-10-17T16:46:31;22.00;99.90
4896;DHT22;2463;49.948;8.472;2022-10-17T16:48:58;21.90;99.90
4896;DHT22;2463;49.948;8.472;2022-10-17T16:51:25;21.70;99.90
4896;DHT22;2463;49.948;8.472;2022-10-17T16:53:52;21.60;99.90
4896;DHT22;2463;49.948;8.472;2022-10-17T16:56:23;21.60;99.90
4896;DHT22;2463;49.948;8.472;2022-10-17T16:58:50;21.50;99.90
4896;DHT22;2463;49.948;8.472;2022-10-17T17:01:20;21.40;99.90
4896;DHT22;2463;49.948;8.472;2022-10-17T17:03:49;21.30;99.90
4896;DHT22;2463;49.948;8.472;2022-10-17T17:06:24;21.30;99.90
4896;DHT22;2463;49.948;8.472;2022-10-17T17:08:53;21.20;99.90
4896;DHT22;2463;49.948;8.472;2022-10-17T17:11:21;21.10;99.90
4896;DHT22;2463;49.948;8.472;2022-10-17T17:13:48;21.00;99.90
4896;DHT22;2463;49.948;8.472;2022-10-17T17:16:20;21.00;99.90
4896;DHT22;2463;49.948;8.472;2022-10-17T17:18:48;21.00;99.90
4896;DHT22;2463;49.948;8.472;2022-10-17T17:21:17;21.00;99.90
4896;DHT22;2463;49.948;8.472;2022-10-17T17:23:44;21.00;99.90
4896;DHT22;2463;49.948;8.472;2022-10-17T17:26:16;21.00;99.90
4896;DHT22;2463;49.948;8.472;2022-10-17T17:28:43;20.90;99.90
4896;DHT22;2463;49.948;8.472;2022-10-17T17:31:12;20.80;99.90
4896;DHT22;2463;49.948;8.472;2022-10-17T17:33:40;20.80;99.90
4896;DHT22;2463;49.948;8.472;2022-10-17T17:36:11;20.70;99.90
4896;DHT22;2463;49.948;8.472;2022-10-17T17:38:38;20.60;99.90
4896;DHT22;2463;49.948;8.472;2022-10-17T17:41:06;20.50;99.90
4896;DHT22;2463;49.948;8.472;2022-10-17T17:43:34;20.50;99.90
4896;DHT22;2463;49.948;8.472;2022-10-17T17:46:01;20.40;99.90
4896;DHT22;2463;49.948;8.472;2022-10-17T17:48:28;20.50;99.90
4896;DHT22;2463;49.948;8.472;2022-10-17T17:50:55;20.40;99.90
4896;DHT22;2463;49.948;8.472;2022-10-17T17:53:22;20.40;99.90
4896;DHT22;2463;49.948;8.472;2022-10-17T17:56:03;20.40;99.90
4896;DHT22;2463;49.948;8.472;2022-10-17T17:58:31;20.40;99.90
4896;DHT22;2463;49.948;8.472;2022-10-17T18:00:58;20.30;99.90
4896;DHT22;2463;49.948;8.472;2022-10-17T18:03:25;20.30;99.90
4896;DHT22;2463;49.948;8.472;2022-10-17T18:05:52;20.30;99.90
4896;DHT22;2463;49.948;8.472;2022-10-17T18:08:19;20.20;99.90
4896;DHT22;2463;49.948;8.472;2022-10-17T18:10:49;20.20;99.90
4896;DHT22;2463;49.948;8.472;2022-10-17T18:13:19;20.20;99.90
4896;DHT22;2463;49.948;8.472;2022-10-17T18:15:46;20.20;99.90
4896;DHT22;2463;49.948;8.472;2022-10-17T18:18:17;20.10;99.90
4896;DHT22;2463;49.948;8.472;2022-10-17T18:20:44;20.20;99.90
4896;DHT22;2463;49.948;8.472;2022-10-17T18:23:11;20.10;99.90